Clinton, AR

3:34 AM CST on February 23, 2017 (GMT -0600)
Clinton

Weather History for KCCA - July, 2013

Change the Weather History Date:

Friday, July 12, 2013

  Actual Average (KBVX) Record (KBVX)
Temperature  
Mean Temperature 78 °F -  
Max Temperature 91 °F 94 °F 109 °F (1954)
Min Temperature 64 °F 70 °F 55 °F (1952)
Cooling Degree Days 12    
Growing Degree Days 28 (Base 50)    
Moisture  
Dew Point 60 °F    
Average Humidity 62    
Maximum Humidity 100    
Minimum Humidity 24    
Precipitation  
Precipitation 0.00 in - - ()
Sea Level Pressure  
Sea Level Pressure 30.04 in    
Wind  
Wind Speed - (North)    
Max Wind Speed -    
Max Gust Speed -    
Visibility 7 miles    
Events      
Averages and records for this station are not official NWS values.
T = Trace of Precipitation, MM = Missing Value Source: NWS Daily Summary

Daily Weather History Graph

Daily Weather History Graph

Search for Another Location

Airport or City:

Trip Planner

Search our weather history database for the weather conditions in past years. The results will help you decide how hot, cold, wet, or windy it might be!

Date:

Astronomy

Jul. 12, 2013 Rise Set
Actual Time 6:03 AM CDT 8:26 PM CDT
Civil Twilight 5:34 AM CDT 8:56 PM CDT
Nautical Twilight 4:58 AM CDT 9:32 PM CDT
Astronomical Twilight 4:18 AM CDT 10:11 PM CDT
Moon 10:10 AM CDT (7/12) 10:49 PM CDT (7/12)
Length of Visible Light 15h 21m
Length of Day
14h 22m
Waxing Crescent, 17% of the Moon is Illuminated
Jul 12
Waxing Crescent
Jul 15
First Quarter
Jul 22
Full
Jul 29
Last Quarter
Aug 6
New

Hourly Weather History & Observations

Time (CDT) Temp. Heat Index Dew Point Humidity Pressure Visibility Wind Dir Wind Speed Gust Speed Precip Events Conditions
12:15 AM 75.2 °F - 69.8 °F 83% 30.01 in 8.0 mi North - - N/A   Clear
12:35 AM 75.2 °F - 69.8 °F 83% 30.02 in 9.0 mi North - - N/A   Clear
12:55 AM 73.4 °F - 69.8 °F 88% 30.02 in 8.0 mi North - - N/A   Clear
1:15 AM 71.6 °F - 69.8 °F 94% 30.02 in 8.0 mi North - - N/A   Clear
1:35 AM 71.6 °F - 68.0 °F 88% 30.02 in 7.0 mi North - - N/A   Clear
1:55 AM 71.6 °F - 68.0 °F 88% 30.03 in 7.0 mi North - - N/A   Clear
2:15 AM 69.8 °F - 66.2 °F 88% 30.03 in 7.0 mi North - - N/A   Clear
2:35 AM 69.8 °F - 66.2 °F 88% 30.03 in 7.0 mi North - - N/A   Clear
2:55 AM 69.8 °F - 66.2 °F 88% 30.03 in 7.0 mi North - - N/A   Clear
3:15 AM 68.0 °F - 66.2 °F 94% 30.03 in 7.0 mi North - - N/A   Clear
3:35 AM 68.0 °F - 64.4 °F 88% 30.03 in 7.0 mi North - - N/A   Clear
3:55 AM 66.2 °F - 64.4 °F 94% 30.03 in 7.0 mi North - - N/A   Clear
4:15 AM 66.2 °F - 64.4 °F 94% 30.04 in 7.0 mi North - - N/A   Clear
4:35 AM 66.2 °F - 64.4 °F 94% 30.04 in 5.0 mi North - - N/A   Clear
4:55 AM 66.2 °F - 64.4 °F 94% 30.04 in 5.0 mi North - - N/A   Clear
5:15 AM 64.4 °F - 64.4 °F 100% 30.05 in 5.0 mi North - - N/A   Clear
5:35 AM 64.4 °F - 64.4 °F 100% 30.06 in 5.0 mi North - - N/A   Clear
5:55 AM 64.4 °F - 64.4 °F 100% 30.06 in 5.0 mi North - - N/A   Clear
6:15 AM 64.4 °F - 62.6 °F 94% 30.07 in 6.0 mi North - - N/A   Clear
6:35 AM 64.4 °F - 62.6 °F 94% 30.07 in 4.0 mi North - - N/A   Clear
6:55 AM 64.4 °F - 64.4 °F 100% 30.08 in 4.0 mi North - - N/A   Partly Cloudy
7:15 AM 66.2 °F - 64.4 °F 94% 30.08 in 5.0 mi North - - N/A   Scattered Clouds
7:35 AM 68.0 °F - 64.4 °F 88% 30.09 in 5.0 mi North - - N/A   Scattered Clouds
7:55 AM 69.8 °F - 64.4 °F 83% 30.09 in 6.0 mi North - - N/A   Haze
8:15 AM 71.6 °F - 64.4 °F 78% 30.09 in 6.0 mi North - - N/A   Haze
8:35 AM 75.2 °F - 60.8 °F 61% 30.10 in 6.0 mi North - - N/A   Haze
8:55 AM 75.2 °F - 60.8 °F 61% 30.10 in 7.0 mi North - - N/A   Mostly Cloudy
9:15 AM 78.8 °F - 60.8 °F 54% 30.10 in 7.0 mi North - - N/A   Overcast
9:35 AM 78.8 °F - 60.8 °F 54% 30.10 in 7.0 mi North - - N/A   Mostly Cloudy
9:55 AM 78.8 °F - 60.8 °F 54% 30.09 in 7.0 mi North - - N/A   Overcast
10:15 AM 78.8 °F - 60.8 °F 54% 30.09 in 7.0 mi North - - N/A   Overcast
10:35 AM 78.8 °F - 57.2 °F 47% 30.09 in 7.0 mi North - - N/A   Scattered Clouds
10:55 AM 80.6 °F 81.1 °F 59.0 °F 48% 30.08 in 7.0 mi North - - N/A   Partly Cloudy
11:15 AM 80.6 °F 80.8 °F 57.2 °F 45% 30.08 in 7.0 mi North - - N/A   Partly Cloudy
11:35 AM 82.4 °F 82.0 °F 57.2 °F 42% 30.08 in 7.0 mi North - - N/A   Clear
11:55 AM 82.4 °F 81.7 °F 55.4 °F 39% 30.08 in 7.0 mi North - - N/A   Clear
12:15 PM 84.2 °F 83.5 °F 57.2 °F 40% 30.07 in 7.0 mi North - - N/A   Clear
12:35 PM 84.2 °F 83.5 °F 57.2 °F 40% 30.06 in 7.0 mi North - - N/A   Clear
12:55 PM 84.2 °F 83.0 °F 55.4 °F 37% 30.06 in 8.0 mi North - - N/A   Clear
1:15 PM 86.0 °F 84.5 °F 55.4 °F 35% 30.06 in 8.0 mi North - - N/A   Clear
1:35 PM 87.8 °F 86.1 °F 55.4 °F 33% 30.05 in 8.0 mi North - - N/A   Clear
1:55 PM 87.8 °F 86.1 °F 55.4 °F 33% 30.04 in 7.0 mi North - - N/A   Clear
2:15 PM 87.8 °F 86.1 °F 55.4 °F 33% 30.04 in 8.0 mi North - - N/A   Clear
2:35 PM 89.6 °F 87.7 °F 55.4 °F 31% 30.03 in 8.0 mi North - - N/A   Clear
2:55 PM 89.6 °F 87.7 °F 55.4 °F 31% 30.02 in 7.0 mi North - - N/A   Clear
3:15 PM 89.6 °F 87.7 °F 55.4 °F 31% 30.01 in 7.0 mi North - - N/A   Clear
3:35 PM 89.6 °F 87.3 °F 53.6 °F 29% 30.01 in 8.0 mi North - - N/A   Clear
3:55 PM 91.4 °F 89.1 °F 53.6 °F 28% 30.00 in 7.0 mi North - - N/A   Clear
4:15 PM 91.4 °F - 50.0 °F 24% 30.00 in 7.0 mi North - - N/A   Clear
4:35 PM 91.4 °F - 51.8 °F 26% 29.99 in 8.0 mi North - - N/A   Clear
4:55 PM 91.4 °F 89.1 °F 53.6 °F 28% 30.00 in 8.0 mi North - - N/A   Clear
5:15 PM 91.4 °F 89.1 °F 53.6 °F 28% 29.99 in 7.0 mi North - - N/A   Clear
5:35 PM 89.6 °F 87.3 °F 53.6 °F 29% 29.99 in 8.0 mi North - - N/A   Clear
5:55 PM 89.6 °F 87.7 °F 55.4 °F 31% 29.99 in 7.0 mi North - - N/A   Clear
6:15 PM 89.6 °F 87.3 °F 53.6 °F 29% 29.98 in 8.0 mi North - - N/A   Clear
6:35 PM 89.6 °F 87.3 °F 53.6 °F 29% 29.99 in 7.0 mi North - - N/A   Clear
6:55 PM 89.6 °F 87.3 °F 53.6 °F 29% 29.99 in 7.0 mi North - - N/A   Clear
7:15 PM 87.8 °F 85.7 °F 53.6 °F 31% 29.99 in 7.0 mi North - - N/A   Clear
7:35 PM 87.8 °F 86.1 °F 55.4 °F 33% 29.99 in 7.0 mi North - - N/A   Clear
7:55 PM 84.2 °F 83.5 °F 57.2 °F 40% 29.99 in 8.0 mi North - - N/A   Clear
8:15 PM 80.6 °F 81.8 °F 62.6 °F 54% 30.00 in 7.0 mi North - - N/A   Clear
8:35 PM 75.2 °F - 62.6 °F 65% 30.00 in 9.0 mi North - - N/A   Clear
8:55 PM 73.4 °F - 60.8 °F 65% 30.00 in 9.0 mi North - - N/A   Clear
9:15 PM 71.6 °F - 60.8 °F 69% 30.01 in 8.0 mi North - - N/A   Clear
9:35 PM 71.6 °F - 60.8 °F 69% 30.02 in 8.0 mi North - - N/A   Clear
9:55 PM 69.8 °F - 60.8 °F 73% 30.02 in 9.0 mi North - - N/A   Clear
10:15 PM 68.0 °F - 60.8 °F 78% 30.03 in 9.0 mi North - - N/A   Clear
10:35 PM 66.2 °F - 60.8 °F 83% 30.03 in 8.0 mi North - - N/A   Clear
10:55 PM 66.2 °F - 60.8 °F 83% 30.03 in 9.0 mi North - - N/A   Clear
11:15 PM 64.4 °F - 59.0 °F 83% 30.03 in 9.0 mi North - - N/A   Clear
11:35 PM 64.4 °F - 59.0 °F 83% 30.04 in 8.0 mi North - - N/A   Clear
11:55 PM 64.4 °F - 57.2 °F 77% 30.05 in 9.0 mi North - - N/A   Clear